createdAt,value
2023-01-17T00:02:07.533Z,2.96
2023-01-17T00:04:52.995Z,2.89
2023-01-17T00:07:40.148Z,2.83
2023-01-17T00:10:11.559Z,2.83
2023-01-17T00:12:40.491Z,2.63
2023-01-17T00:15:09.560Z,2.60
2023-01-17T00:17:37.204Z,2.45
2023-01-17T00:20:22.886Z,2.46
2023-01-17T00:23:08.464Z,2.39
2023-01-17T00:25:57.932Z,2.46
2023-01-17T00:28:25.076Z,2.46
2023-01-17T00:30:51.651Z,2.42
2023-01-17T00:33:19.099Z,2.41
2023-01-17T00:35:46.688Z,2.32
2023-01-17T00:38:15.428Z,2.31
2023-01-17T00:40:44.533Z,2.23
2023-01-17T00:43:31.394Z,2.32
2023-01-17T00:46:16.936Z,2.32
2023-01-17T00:49:02.445Z,2.25
2023-01-17T00:51:48.695Z,2.27
2023-01-17T00:54:35.217Z,2.27
2023-01-17T00:57:22.757Z,2.18
2023-01-17T01:00:08.375Z,2.21
2023-01-17T01:02:54.803Z,2.23
2023-01-17T01:05:40.406Z,2.38
2023-01-17T01:08:35.319Z,2.31
2023-01-17T01:11:23.548Z,2.17
2023-01-17T01:14:10.105Z,2.35
2023-01-17T01:16:55.575Z,2.36
2023-01-17T01:19:40.798Z,2.32
2023-01-17T01:22:25.995Z,2.31
2023-01-17T01:25:12.094Z,2.46
2023-01-17T01:27:57.425Z,2.38
2023-01-17T01:30:44.177Z,2.38
2023-01-17T01:33:19.491Z,2.38
2023-01-17T01:35:49.304Z,2.51
2023-01-17T01:38:17.667Z,2.47
2023-01-17T01:40:50.259Z,2.51
2023-01-17T01:43:21.104Z,2.55
2023-01-17T01:45:55.120Z,2.45
2023-01-17T01:48:35.725Z,2.42
2023-01-17T01:51:07.155Z,2.40
2023-01-17T01:53:38.683Z,2.39
2023-01-17T01:56:10.503Z,2.13
2023-01-17T01:58:39.838Z,2.11
2023-01-17T02:01:10.310Z,2.27
2023-01-17T02:03:41.090Z,2.17
2023-01-17T02:06:20.846Z,1.89
2023-01-17T02:08:49.873Z,2.15
2023-01-17T02:11:17.535Z,2.11
2023-01-17T02:13:45.653Z,2.06
2023-01-17T02:16:26.896Z,2.23
2023-01-17T02:19:06.909Z,1.71
2023-01-17T02:21:39.132Z,1.92
2023-01-17T02:24:35.903Z,2.06
2023-01-17T02:27:15.496Z,1.91
2023-01-17T02:30:33.622Z,1.82
2023-01-17T02:33:09.915Z,1.90
2023-01-17T02:35:48.814Z,1.83
2023-01-17T02:38:31.208Z,1.96
2023-01-17T02:41:05.609Z,2.13
2023-01-17T02:43:34.409Z,2.08
2023-01-17T02:46:03.690Z,1.91
2023-01-17T02:48:34.479Z,2.04
2023-01-17T02:51:24.010Z,1.73
2023-01-17T02:54:05.384Z,2.01
2023-01-17T02:56:48.574Z,1.81
2023-01-17T02:59:29.318Z,1.92
2023-01-17T03:02:10.946Z,1.80
2023-01-17T03:04:45.730Z,1.61
2023-01-17T03:07:17.564Z,1.67
2023-01-17T03:09:48.846Z,1.51
2023-01-17T03:12:16.797Z,1.62
2023-01-17T03:14:44.753Z,1.62
2023-01-17T03:17:13.947Z,1.51
2023-01-17T03:19:42.031Z,1.46
2023-01-17T03:22:10.338Z,1.33
2023-01-17T03:24:38.451Z,1.47
2023-01-17T03:27:06.609Z,1.45
2023-01-17T03:29:34.264Z,1.38
2023-01-17T03:32:02.289Z,1.26
2023-01-17T03:34:31.250Z,1.36
2023-01-17T03:36:59.524Z,1.62
2023-01-17T03:39:27.105Z,1.69
2023-01-17T03:41:54.862Z,1.60
2023-01-17T03:44:22.568Z,1.98
2023-01-17T03:46:50.597Z,1.83
2023-01-17T03:49:18.386Z,1.84
2023-01-17T03:51:47.431Z,1.94
2023-01-17T03:54:15.042Z,2.05
2023-01-17T03:56:43.014Z,1.97
2023-01-17T03:59:13.087Z,2.08
2023-01-17T04:01:41.728Z,2.03
2023-01-17T04:04:09.429Z,2.00
2023-01-17T04:06:37.212Z,2.16
2023-01-17T04:09:06.493Z,2.04
2023-01-17T04:11:34.635Z,2.05
2023-01-17T04:14:02.314Z,1.98
2023-01-17T04:16:32.426Z,2.07
2023-01-17T04:19:00.113Z,2.13
2023-01-17T04:21:28.112Z,2.20
2023-01-17T04:23:55.716Z,2.16
2023-01-17T04:26:25.089Z,2.18
2023-01-17T04:28:52.670Z,2.15
2023-01-17T04:31:20.492Z,2.10
2023-01-17T04:33:48.907Z,2.05
2023-01-17T04:36:16.889Z,1.96
2023-01-17T04:38:44.932Z,1.87
2023-01-17T04:41:12.885Z,1.76
2023-01-17T04:43:41.838Z,1.81
2023-01-17T04:46:10.894Z,1.71
2023-01-17T04:48:38.572Z,1.70
2023-01-17T04:51:08.071Z,1.69
2023-01-17T04:53:35.666Z,1.69
2023-01-17T04:56:03.851Z,1.59
2023-01-17T04:58:33.336Z,1.49
2023-01-17T05:01:04.433Z,1.57
2023-01-17T05:03:32.607Z,1.71
2023-01-17T05:06:00.691Z,1.86
2023-01-17T05:08:29.331Z,1.84
2023-01-17T05:10:57.109Z,1.85
2023-01-17T05:13:24.863Z,1.77
2023-01-17T05:15:52.720Z,1.67
2023-01-17T05:18:22.049Z,1.73
2023-01-17T05:20:49.677Z,1.74
2023-01-17T05:23:17.757Z,1.78
2023-01-17T05:25:45.445Z,1.85
2023-01-17T05:28:14.342Z,1.83
2023-01-17T05:30:42.263Z,1.85
2023-01-17T05:33:10.803Z,1.89
2023-01-17T05:35:40.147Z,2.05
2023-01-17T05:38:07.871Z,2.02
2023-01-17T05:40:35.644Z,1.93
2023-01-17T05:43:04.504Z,1.80
2023-01-17T05:45:33.364Z,1.75
2023-01-17T05:48:01.697Z,1.74
2023-01-17T05:50:30.990Z,1.77
2023-01-17T05:53:02.474Z,1.83
2023-01-17T05:55:31.477Z,1.76
2023-01-17T05:58:00.492Z,1.69
2023-01-17T06:00:29.125Z,1.73
2023-01-17T06:02:58.004Z,1.67
2023-01-17T06:05:27.014Z,1.60
2023-01-17T06:07:56.664Z,1.64
2023-01-17T06:10:26.973Z,1.66
2023-01-17T06:13:02.042Z,1.64
2023-01-17T06:15:29.965Z,1.61
2023-01-17T06:17:57.720Z,1.57
2023-01-17T06:20:25.375Z,1.59
2023-01-17T06:22:53.030Z,1.54
2023-01-17T06:25:20.671Z,1.52
2023-01-17T06:27:50.367Z,1.47
2023-01-17T06:30:18.433Z,1.23
2023-01-17T06:32:48.697Z,1.30
2023-01-17T06:35:16.332Z,1.09
2023-01-17T06:37:43.959Z,1.01
2023-01-17T06:40:13.117Z,0.85
2023-01-17T06:42:40.748Z,0.64
2023-01-17T06:45:11.409Z,0.33
2023-01-17T06:47:39.452Z,0.12
2023-01-17T06:50:08.009Z,0.12
2023-01-17T06:52:35.616Z,0.22
2023-01-17T06:55:03.539Z,0.43
2023-01-17T06:57:31.139Z,0.60
2023-01-17T06:59:59.245Z,0.67
2023-01-17T07:02:28.284Z,0.68
2023-01-17T07:04:56.226Z,0.67
2023-01-17T07:07:24.805Z,0.66
2023-01-17T07:09:52.617Z,0.67
2023-01-17T07:12:20.581Z,0.67
2023-01-17T07:14:49.042Z,0.64
2023-01-17T07:17:16.657Z,0.64
2023-01-17T07:19:46.239Z,0.69
2023-01-17T07:22:13.912Z,0.69
2023-01-17T07:24:41.506Z,0.69
2023-01-17T07:27:09.320Z,0.71
2023-01-17T07:29:37.232Z,0.68
2023-01-17T07:32:04.839Z,0.71
2023-01-17T07:34:32.457Z,0.69
2023-01-17T07:37:01.881Z,0.67
2023-01-17T07:39:29.726Z,0.80
2023-01-17T07:41:57.321Z,0.88
2023-01-17T07:44:25.103Z,0.98
2023-01-17T07:46:52.764Z,1.05
2023-01-17T07:49:20.716Z,1.09
2023-01-17T07:51:48.750Z,1.18
2023-01-17T07:54:18.276Z,1.28
2023-01-17T07:56:47.163Z,1.39
2023-01-17T07:59:15.464Z,1.55
2023-01-17T08:01:43.156Z,1.82
2023-01-17T08:04:11.958Z,1.92
2023-01-17T08:06:43.152Z,1.94
2023-01-17T08:09:11.501Z,1.96
2023-01-17T08:11:40.526Z,1.94
2023-01-17T08:14:08.828Z,1.90
2023-01-17T08:16:37.554Z,1.89
2023-01-17T08:19:06.042Z,1.88
2023-01-17T08:21:33.647Z,1.91
2023-01-17T08:24:01.952Z,1.85
2023-01-17T08:26:29.566Z,1.94
2023-01-17T08:29:01.209Z,1.99
2023-01-17T08:31:30.187Z,2.07
2023-01-17T08:33:58.199Z,2.17
2023-01-17T08:36:28.845Z,2.27
2023-01-17T08:38:56.741Z,2.39
2023-01-17T08:41:27.368Z,2.49
2023-01-17T08:43:55.165Z,2.66
2023-01-17T08:46:25.194Z,2.77
2023-01-17T08:48:55.652Z,2.87
2023-01-17T08:51:25.065Z,2.99
2023-01-17T08:53:52.899Z,3.12
2023-01-17T08:56:21.288Z,3.32
2023-01-17T08:58:48.881Z,3.76
2023-01-17T09:01:17.266Z,4.35
2023-01-17T09:03:46.532Z,5.47
2023-01-17T09:06:17.123Z,6.14
2023-01-17T09:08:46.837Z,6.21
2023-01-17T09:11:17.385Z,6.07
2023-01-17T09:13:45.026Z,6.08
2023-01-17T09:16:12.864Z,6.22
2023-01-17T09:18:40.510Z,6.21
2023-01-17T09:21:14.296Z,6.12
2023-01-17T09:23:42.629Z,5.90
2023-01-17T09:26:19.041Z,5.99
2023-01-17T09:28:46.738Z,6.56
2023-01-17T09:31:17.284Z,7.00
2023-01-17T09:33:45.170Z,7.15
2023-01-17T09:36:14.397Z,7.21
2023-01-17T09:38:42.502Z,7.20
2023-01-17T09:41:23.097Z,7.70
2023-01-17T09:43:55.040Z,8.51
2023-01-17T09:46:27.773Z,9.27
2023-01-17T09:49:02.792Z,10.04
2023-01-17T09:51:33.167Z,10.78
2023-01-17T09:54:02.366Z,11.30
2023-01-17T09:56:36.460Z,11.46
2023-01-17T09:59:18.965Z,11.69
2023-01-17T10:01:58.035Z,11.87
2023-01-17T10:04:53.170Z,12.19
2023-01-17T10:07:34.840Z,11.80
2023-01-17T10:10:18.353Z,11.10
2023-01-17T10:12:55.966Z,10.25
2023-01-17T10:15:40.607Z,9.64
2023-01-17T10:18:31.150Z,9.35
2023-01-17T10:21:05.596Z,8.96
2023-01-17T10:23:56.231Z,8.67
2023-01-17T10:26:27.198Z,8.65
2023-01-17T10:29:01.659Z,8.74
2023-01-17T10:31:35.728Z,8.66
2023-01-17T10:34:12.871Z,8.36
2023-01-17T10:36:46.068Z,8.05
2023-01-17T10:39:20.272Z,7.82
2023-01-17T10:41:56.250Z,7.46
2023-01-17T10:44:29.873Z,7.18
2023-01-17T10:47:03.282Z,7.02
2023-01-17T10:49:31.656Z,6.90
2023-01-17T10:52:13.799Z,6.96
2023-01-17T10:54:54.565Z,7.01
2023-01-17T10:57:25.233Z,6.99
2023-01-17T10:59:53.609Z,6.98
2023-01-17T11:02:25.896Z,7.19
2023-01-17T11:04:55.681Z,7.30
2023-01-17T11:07:25.774Z,7.30
2023-01-17T11:09:56.315Z,7.02
2023-01-17T11:12:28.536Z,6.89
2023-01-17T11:15:02.556Z,6.72
2023-01-17T11:17:31.376Z,6.53
2023-01-17T11:20:15.100Z,6.39
2023-01-17T11:22:45.684Z,6.20
2023-01-17T11:25:22.982Z,6.14
2023-01-17T11:28:02.093Z,6.09
2023-01-17T11:30:30.340Z,5.99
2023-01-17T11:33:01.026Z,5.93
2023-01-17T11:35:31.129Z,6.07
2023-01-17T11:38:05.778Z,6.27
2023-01-17T11:40:42.199Z,6.37
2023-01-17T11:43:23.399Z,6.35
2023-01-17T11:46:03.675Z,6.36
2023-01-17T11:48:39.827Z,6.17
2023-01-17T11:51:20.049Z,6.15
2023-01-17T11:53:49.245Z,5.99
2023-01-17T11:56:29.008Z,6.10
2023-01-17T11:59:15.072Z,6.02
2023-01-17T12:01:47.997Z,5.95
2023-01-17T12:04:25.123Z,5.89
2023-01-17T12:07:08.513Z,5.90
2023-01-17T12:09:43.545Z,6.07
2023-01-17T12:12:39.181Z,6.14
2023-01-17T12:15:20.476Z,6.02
2023-01-17T12:18:02.221Z,5.94
2023-01-17T12:20:39.774Z,6.10
2023-01-17T12:23:28.025Z,6.07
2023-01-17T12:26:06.739Z,6.21
2023-01-17T12:29:20.208Z,6.09
2023-01-17T12:31:57.960Z,6.09
2023-01-17T12:34:31.441Z,6.04
2023-01-17T12:37:04.994Z,5.93
2023-01-17T12:39:38.126Z,5.88
2023-01-17T12:42:13.403Z,5.85
2023-01-17T12:44:51.834Z,5.78
2023-01-17T12:47:21.851Z,5.75
2023-01-17T12:49:57.366Z,5.46
2023-01-17T12:52:42.454Z,5.53
2023-01-17T12:55:18.299Z,5.42
2023-01-17T12:57:53.186Z,5.52
2023-01-17T13:00:25.512Z,5.61
2023-01-17T13:02:58.474Z,5.70
2023-01-17T13:05:31.736Z,5.77
2023-01-17T13:08:07.500Z,5.78
2023-01-17T13:10:39.790Z,5.66
2023-01-17T13:13:20.392Z,5.75
2023-01-17T13:15:50.711Z,5.75
2023-01-17T13:18:25.614Z,5.98
2023-01-17T13:21:06.066Z,5.95
2023-01-17T13:23:48.920Z,6.03
2023-01-17T13:26:25.363Z,5.93
2023-01-17T13:29:01.175Z,5.88
2023-01-17T13:31:38.720Z,5.61
2023-01-17T13:34:25.790Z,5.89
2023-01-17T13:37:18.377Z,5.62
2023-01-17T13:40:06.464Z,5.55
2023-01-17T13:42:46.911Z,5.39
2023-01-17T13:45:20.350Z,5.39
2023-01-17T13:47:49.599Z,5.55
2023-01-17T13:50:50.068Z,5.39
2023-01-17T13:53:57.426Z,5.24
2023-01-17T13:56:31.654Z,5.01
2023-01-17T13:59:19.625Z,5.08
2023-01-17T14:01:54.693Z,5.05
2023-01-17T14:04:24.921Z,5.01
2023-01-17T14:07:01.048Z,5.02
2023-01-17T14:09:41.475Z,4.78
2023-01-17T14:12:29.600Z,4.67
2023-01-17T14:14:57.973Z,4.64
2023-01-17T14:17:55.623Z,4.52
2023-01-17T14:21:09.288Z,4.47
2023-01-17T14:23:55.491Z,4.56
2023-01-17T14:26:50.034Z,4.47
2023-01-17T14:29:58.973Z,4.42
2023-01-17T14:32:31.371Z,4.34
2023-01-17T14:34:59.697Z,4.26
2023-01-17T14:37:46.617Z,4.28
2023-01-17T14:40:17.389Z,4.25
2023-01-17T14:42:46.453Z,4.34
2023-01-17T14:45:22.367Z,4.15
2023-01-17T14:47:51.447Z,4.22
2023-01-17T14:50:26.429Z,4.32
2023-01-17T14:53:15.331Z,4.29
2023-01-17T14:55:55.335Z,4.24
2023-01-17T14:58:25.411Z,4.29
2023-01-17T15:00:57.193Z,4.23
2023-01-17T15:03:25.087Z,4.15
2023-01-17T15:05:55.289Z,4.10
2023-01-17T15:08:27.110Z,4.14
2023-01-17T15:11:00.073Z,4.07
2023-01-17T15:13:43.740Z,4.04
2023-01-17T15:16:21.489Z,4.00
2023-01-17T15:18:50.244Z,3.96
2023-01-17T15:21:20.653Z,3.89
2023-01-17T15:23:51.294Z,3.79
2023-01-17T15:26:24.924Z,3.84
2023-01-17T15:28:53.194Z,3.84
2023-01-17T15:31:40.492Z,3.79
2023-01-17T15:34:10.416Z,3.82
2023-01-17T15:36:38.539Z,3.75
2023-01-17T15:39:15.795Z,3.72
2023-01-17T15:41:45.808Z,3.63
2023-01-17T15:44:31.154Z,3.58
2023-01-17T15:47:05.131Z,3.54
2023-01-17T15:49:32.907Z,3.50
2023-01-17T15:52:15.269Z,3.48
2023-01-17T15:54:47.468Z,3.47
2023-01-17T15:57:26.099Z,3.47
2023-01-17T15:59:56.908Z,3.39
2023-01-17T16:02:37.362Z,3.34
2023-01-17T16:05:35.205Z,3.43
2023-01-17T16:08:29.483Z,3.37
2023-01-17T16:11:01.880Z,3.42
2023-01-17T16:13:31.606Z,3.40
2023-01-17T16:16:18.568Z,3.39
2023-01-17T16:18:47.819Z,3.36
2023-01-17T16:21:23.648Z,3.34
2023-01-17T16:23:52.289Z,3.37
2023-01-17T16:26:20.770Z,3.39
2023-01-17T16:28:49.691Z,3.40
2023-01-17T16:31:18.253Z,3.36
2023-01-17T16:33:46.146Z,3.41
2023-01-17T16:36:16.540Z,3.41
2023-01-17T16:38:46.717Z,3.45
2023-01-17T16:41:14.332Z,3.48
2023-01-17T16:43:41.969Z,3.51
2023-01-17T16:46:12.349Z,3.51
2023-01-17T16:48:40.071Z,3.54
2023-01-17T16:51:09.047Z,3.55
2023-01-17T16:53:37.575Z,3.51
2023-01-17T16:56:13.879Z,3.52
2023-01-17T16:58:42.532Z,3.48
2023-01-17T17:01:11.603Z,3.47
2023-01-17T17:03:39.283Z,3.48
2023-01-17T17:06:07.578Z,3.48
2023-01-17T17:08:36.036Z,3.41
2023-01-17T17:11:17.165Z,3.47
2023-01-17T17:13:47.533Z,3.51
2023-01-17T17:16:18.677Z,3.48
2023-01-17T17:18:47.784Z,3.46
2023-01-17T17:21:15.597Z,3.48
2023-01-17T17:23:43.227Z,3.48
2023-01-17T17:26:12.600Z,3.50
2023-01-17T17:28:40.581Z,3.48
2023-01-17T17:31:11.307Z,3.50
2023-01-17T17:33:41.858Z,3.52
2023-01-17T17:36:11.374Z,3.54
2023-01-17T17:38:50.961Z,3.50
2023-01-17T17:41:22.299Z,3.53
2023-01-17T17:43:51.185Z,3.51
2023-01-17T17:46:20.649Z,3.48
2023-01-17T17:48:49.103Z,3.49
2023-01-17T17:51:26.177Z,3.54
2023-01-17T17:53:54.581Z,3.52
2023-01-17T17:56:25.359Z,3.48
2023-01-17T17:58:53.242Z,3.50
2023-01-17T18:01:22.793Z,3.52
2023-01-17T18:03:50.976Z,3.52
2023-01-17T18:06:19.312Z,3.57
2023-01-17T18:08:48.210Z,3.54
2023-01-17T18:11:18.728Z,3.50
2023-01-17T18:13:50.998Z,3.46
2023-01-17T18:16:20.860Z,3.42
2023-01-17T18:18:51.128Z,3.43
2023-01-17T18:21:23.673Z,3.43
2023-01-17T18:23:54.259Z,3.43
2023-01-17T18:26:24.290Z,3.41
2023-01-17T18:28:54.212Z,3.41
2023-01-17T18:31:23.956Z,3.38
2023-01-17T18:33:52.563Z,3.40
2023-01-17T18:36:21.611Z,3.40
2023-01-17T18:38:50.181Z,3.38
2023-01-17T18:41:19.948Z,3.35
2023-01-17T18:43:48.298Z,3.39
2023-01-17T18:46:18.939Z,3.43
2023-01-17T18:48:48.072Z,3.42
2023-01-17T18:51:17.774Z,3.43
2023-01-17T18:53:47.854Z,3.40
2023-01-17T18:56:18.455Z,3.31
2023-01-17T18:58:48.574Z,3.37
2023-01-17T19:01:19.357Z,3.35
2023-01-17T19:03:49.568Z,3.35
2023-01-17T19:06:19.980Z,3.38
2023-01-17T19:08:49.786Z,3.30
2023-01-17T19:11:17.393Z,3.22
2023-01-17T19:13:46.423Z,3.15
2023-01-17T19:16:15.871Z,3.21
2023-01-17T19:18:45.145Z,3.28
2023-01-17T19:21:14.488Z,3.21
2023-01-17T19:23:43.926Z,3.13
2023-01-17T19:26:12.498Z,3.02
2023-01-17T19:28:41.932Z,2.99
2023-01-17T19:31:10.960Z,2.94
2023-01-17T19:33:41.230Z,3.01
2023-01-17T19:36:13.429Z,3.03
2023-01-17T19:38:45.521Z,2.96
2023-01-17T19:41:20.147Z,2.56
2023-01-17T19:43:48.623Z,2.32
2023-01-17T19:46:20.362Z,2.38
2023-01-17T19:48:48.846Z,2.47
2023-01-17T19:51:18.108Z,2.46
2023-01-17T19:53:45.850Z,2.39
2023-01-17T19:56:15.552Z,2.65
2023-01-17T19:58:45.289Z,2.69
2023-01-17T20:01:15.368Z,2.69
2023-01-17T20:03:45.091Z,2.69
2023-01-17T20:06:14.726Z,2.49
2023-01-17T20:08:45.254Z,2.43
2023-01-17T20:11:14.853Z,2.41
2023-01-17T20:13:42.833Z,2.38
2023-01-17T20:16:13.649Z,2.37
2023-01-17T20:18:41.942Z,2.34
2023-01-17T20:21:12.211Z,2.35
2023-01-17T20:23:42.979Z,2.33
2023-01-17T20:26:13.059Z,2.32
2023-01-17T20:28:43.063Z,2.29
2023-01-17T20:31:13.201Z,2.28
2023-01-17T20:33:42.091Z,2.29
2023-01-17T20:36:12.897Z,2.27
2023-01-17T20:38:46.861Z,2.23
2023-01-17T20:41:17.988Z,2.21
2023-01-17T20:43:47.653Z,2.15
2023-01-17T20:46:16.066Z,2.05
2023-01-17T20:48:45.185Z,1.97
2023-01-17T20:51:13.491Z,1.98
2023-01-17T20:53:44.318Z,1.85
2023-01-17T20:56:14.967Z,1.71
2023-01-17T20:58:44.199Z,1.70
2023-01-17T21:01:13.832Z,1.64
2023-01-17T21:03:42.465Z,1.65
2023-01-17T21:06:13.638Z,1.61
2023-01-17T21:08:43.219Z,1.61
2023-01-17T21:11:13.142Z,1.74
2023-01-17T21:13:41.527Z,1.76
2023-01-17T21:16:14.209Z,1.79
2023-01-17T21:18:42.139Z,1.87
2023-01-17T21:21:13.311Z,1.89
2023-01-17T21:23:42.659Z,1.92
2023-01-17T21:26:13.025Z,1.99
2023-01-17T21:28:43.372Z,1.94
2023-01-17T21:31:20.360Z,1.97
2023-01-17T21:33:48.866Z,1.90
2023-01-17T21:36:17.235Z,1.98
2023-01-17T21:38:50.004Z,1.98
2023-01-17T21:41:17.599Z,1.82
2023-01-17T21:43:45.316Z,1.76
2023-01-17T21:46:14.463Z,1.47
2023-01-17T21:48:46.198Z,1.48
2023-01-17T21:51:14.235Z,1.39
2023-01-17T21:53:41.888Z,1.28
2023-01-17T21:56:31.511Z,1.22
2023-01-17T21:58:59.727Z,1.29
2023-01-17T22:01:31.682Z,1.42
2023-01-17T22:04:02.722Z,1.58
2023-01-17T22:06:33.452Z,1.70
2023-01-17T22:09:01.219Z,1.73
2023-01-17T22:11:30.590Z,1.80
2023-01-17T22:13:59.380Z,1.87
2023-01-17T22:16:29.274Z,1.93
2023-01-17T22:18:57.012Z,2.08
2023-01-17T22:21:28.454Z,2.06
2023-01-17T22:23:58.244Z,2.09
2023-01-17T22:26:28.797Z,2.14
2023-01-17T22:28:57.051Z,2.04
2023-01-17T22:31:27.214Z,1.99
2023-01-17T22:33:57.750Z,1.85
2023-01-17T22:36:26.163Z,1.82
2023-01-17T22:38:54.178Z,1.91
2023-01-17T22:41:24.563Z,1.86
2023-01-17T22:43:57.694Z,1.87
2023-01-17T22:46:28.813Z,1.82
2023-01-17T22:48:58.702Z,1.72
2023-01-17T22:51:28.418Z,1.76
2023-01-17T22:53:57.792Z,1.83
2023-01-17T22:56:27.948Z,1.91
2023-01-17T22:58:55.904Z,1.88
2023-01-17T23:01:26.023Z,1.88
2023-01-17T23:03:55.475Z,1.88
2023-01-17T23:06:27.199Z,1.87
2023-01-17T23:08:56.557Z,1.82
2023-01-17T23:11:46.663Z,1.82
2023-01-17T23:14:16.966Z,1.80
2023-01-17T23:17:06.063Z,1.79
2023-01-17T23:19:35.838Z,1.83
2023-01-17T23:22:16.603Z,1.86
2023-01-17T23:24:45.326Z,1.73
2023-01-17T23:27:33.136Z,1.40
2023-01-17T23:30:01.743Z,1.28
2023-01-17T23:32:29.812Z,1.05
2023-01-17T23:34:57.421Z,0.81
2023-01-17T23:37:47.657Z,0.72
2023-01-17T23:40:15.543Z,0.53
2023-01-17T23:43:01.603Z,0.48
2023-01-17T23:45:29.405Z,0.49
2023-01-17T23:47:57.878Z,0.37
2023-01-17T23:50:25.487Z,0.28
2023-01-17T23:52:55.148Z,-0.14
2023-01-17T23:55:23.075Z,-0.01
2023-01-17T23:57:51.990Z,-0.07
